sensor_id;sensor_type;location;lat;lon;timestamp;temperature;humidity
45233;DHT22;30969;51.052;17.056;2023-04-26T04:55:11;5.30;77.30
45233;DHT22;30969;51.052;17.056;2023-04-26T05:00:16;5.40;77.10
45233;DHT22;30969;51.052;17.056;2023-04-26T05:05:19;5.60;75.70
45233;DHT22;30969;51.052;17.056;2023-04-26T05:10:24;6.20;74.80
45233;DHT22;30969;51.052;17.056;2023-04-26T05:15:28;6.60;72.20
45233;DHT22;30969;51.052;17.056;2023-04-26T05:20:32;6.50;71.50
45233;DHT22;30969;51.052;17.056;2023-04-26T05:25:37;6.30;71.70
45233;DHT22;30969;51.052;17.056;2023-04-26T05:30:42;6.30;71.70
45233;DHT22;30969;51.052;17.056;2023-04-26T05:35:45;6.40;71.10
45233;DHT22;30969;51.052;17.056;2023-04-26T05:40:50;6.40;70.40
45233;DHT22;30969;51.052;17.056;2023-04-26T05:45:55;6.40;70.20
45233;DHT22;30969;51.052;17.056;2023-04-26T05:50:59;6.30;70.10
45233;DHT22;30969;51.052;17.056;2023-04-26T05:56:04;6.30;70.40
45233;DHT22;30969;51.052;17.056;2023-04-26T06:01:08;6.40;70.70
45233;DHT22;30969;51.052;17.056;2023-04-26T06:06:13;6.40;70.60
45233;DHT22;30969;51.052;17.056;2023-04-26T06:11:18;6.60;69.80
45233;DHT22;30969;51.052;17.056;2023-04-26T06:16:22;6.60;69.80
45233;DHT22;30969;51.052;17.056;2023-04-26T06:21:26;6.60;68.60
45233;DHT22;30969;51.052;17.056;2023-04-26T06:26:31;6.70;68.70
45233;DHT22;30969;51.052;17.056;2023-04-26T06:31:34;6.60;69.10
45233;DHT22;30969;51.052;17.056;2023-04-26T06:36:38;6.70;68.90
45233;DHT22;30969;51.052;17.056;2023-04-26T06:41:44;6.90;67.90
45233;DHT22;30969;51.052;17.056;2023-04-26T06:46:48;7.10;66.40
45233;DHT22;30969;51.052;17.056;2023-04-26T06:51:52;7.20;66.50
45233;DHT22;30969;51.052;17.056;2023-04-26T06:56:57;7.30;65.00
45233;DHT22;30969;51.052;17.056;2023-04-26T07:02:02;7.40;64.60
45233;DHT22;30969;51.052;17.056;2023-04-26T07:07:06;7.30;64.60
45233;DHT22;30969;51.052;17.056;2023-04-26T07:12:14;7.20;64.80
45233;DHT22;30969;51.052;17.056;2023-04-26T07:17:17;7.30;64.20
45233;DHT22;30969;51.052;17.056;2023-04-26T07:22:22;7.40;63.30
45233;DHT22;30969;51.052;17.056;2023-04-26T07:27:29;7.50;61.50
45233;DHT22;30969;51.052;17.056;2023-04-26T07:32:33;7.50;61.80
45233;DHT22;30969;51.052;17.056;2023-04-26T07:37:38;7.50;60.10
45233;DHT22;30969;51.052;17.056;2023-04-26T07:42:42;7.50;57.50
45233;DHT22;30969;51.052;17.056;2023-04-26T07:47:46;7.50;58.60
45233;DHT22;30969;51.052;17.056;2023-04-26T07:52:49;7.80;57.80
45233;DHT22;30969;51.052;17.056;2023-04-26T07:57:55;8.00;57.20
45233;DHT22;30969;51.052;17.056;2023-04-26T08:02:59;8.20;56.00
45233;DHT22;30969;51.052;17.056;2023-04-26T08:08:04;8.30;54.40
45233;DHT22;30969;51.052;17.056;2023-04-26T08:13:09;8.50;54.10
45233;DHT22;30969;51.052;17.056;2023-04-26T08:18:13;8.50;54.50
45233;DHT22;30969;51.052;17.056;2023-04-26T08:23:16;8.80;55.90
45233;DHT22;30969;51.052;17.056;2023-04-26T08:28:22;8.80;53.60
45233;DHT22;30969;51.052;17.056;2023-04-26T08:33:25;8.60;52.40
45233;DHT22;30969;51.052;17.056;2023-04-26T08:38:29;8.70;54.10
45233;DHT22;30969;51.052;17.056;2023-04-26T08:43:35;8.80;52.60
45233;DHT22;30969;51.052;17.056;2023-04-26T08:48:39;8.80;53.50
45233;DHT22;30969;51.052;17.056;2023-04-26T08:53:43;8.70;52.70
45233;DHT22;30969;51.052;17.056;2023-04-26T08:58:49;8.70;54.40
45233;DHT22;30969;51.052;17.056;2023-04-26T09:03:53;8.90;55.00
45233;DHT22;30969;51.052;17.056;2023-04-26T09:09:00;9.20;53.20
45233;DHT22;30969;51.052;17.056;2023-04-26T09:14:07;9.30;51.40
45233;DHT22;30969;51.052;17.056;2023-04-26T09:19:10;9.40;51.30
45233;DHT22;30969;51.052;17.056;2023-04-26T09:24:14;9.40;52.30
45233;DHT22;30969;51.052;17.056;2023-04-26T09:29:19;9.50;53.20
45233;DHT22;30969;51.052;17.056;2023-04-26T09:34:23;9.40;51.70
45233;DHT22;30969;51.052;17.056;2023-04-26T09:39:31;9.30;50.60
45233;DHT22;30969;51.052;17.056;2023-04-26T09:44:36;9.20;54.00
45233;DHT22;30969;51.052;17.056;2023-04-26T09:49:45;9.20;53.90
45233;DHT22;30969;51.052;17.056;2023-04-26T09:54:51;9.20;52.30
45233;DHT22;30969;51.052;17.056;2023-04-26T09:59:57;9.30;52.70
45233;DHT22;30969;51.052;17.056;2023-04-26T10:05:02;9.40;50.60
45233;DHT22;30969;51.052;17.056;2023-04-26T10:10:09;9.30;50.90
45233;DHT22;30969;51.052;17.056;2023-04-26T10:15:15;9.40;52.70
45233;DHT22;30969;51.052;17.056;2023-04-26T10:20:21;9.60;52.70
45233;DHT22;30969;51.052;17.056;2023-04-26T10:25:34;9.50;48.60
45233;DHT22;30969;51.052;17.056;2023-04-26T10:30:54;9.70;48.90
45233;DHT22;30969;51.052;17.056;2023-04-26T10:36:07;9.90;48.90
45233;DHT22;30969;51.052;17.056;2023-04-26T10:41:30;10.30;47.90
45233;DHT22;30969;51.052;17.056;2023-04-26T10:46:37;10.20;46.10
45233;DHT22;30969;51.052;17.056;2023-04-26T10:52:09;9.90;48.50
45233;DHT22;30969;51.052;17.056;2023-04-26T10:57:13;9.60;52.70
45233;DHT22;30969;51.052;17.056;2023-04-26T11:02:55;9.50;51.30
45233;DHT22;30969;51.052;17.056;2023-04-26T11:08:06;9.80;50.00
45233;DHT22;30969;51.052;17.056;2023-04-26T11:13:11;10.10;46.50
45233;DHT22;30969;51.052;17.056;2023-04-26T11:18:18;10.30;44.90
45233;DHT22;30969;51.052;17.056;2023-04-26T11:23:23;10.20;43.30
45233;DHT22;30969;51.052;17.056;2023-04-26T11:28:26;9.90;46.20
45233;DHT22;30969;51.052;17.056;2023-04-26T11:33:31;9.90;44.80
45233;DHT22;30969;51.052;17.056;2023-04-26T11:38:37;10.10;45.60
45233;DHT22;30969;51.052;17.056;2023-04-26T11:43:40;10.20;44.40
45233;DHT22;30969;51.052;17.056;2023-04-26T11:48:46;10.40;44.80
45233;DHT22;30969;51.052;17.056;2023-04-26T11:53:50;10.50;45.10
45233;DHT22;30969;51.052;17.056;2023-04-26T11:58:53;10.40;43.80
45233;DHT22;30969;51.052;17.056;2023-04-26T12:04:00;10.20;44.40
45233;DHT22;30969;51.052;17.056;2023-04-26T12:09:04;10.70;43.70
45233;DHT22;30969;51.052;17.056;2023-04-26T12:14:09;11.00;43.00
45233;DHT22;30969;51.052;17.056;2023-04-26T12:19:14;10.90;43.50
45233;DHT22;30969;51.052;17.056;2023-04-26T12:24:22;10.80;45.10
45233;DHT22;30969;51.052;17.056;2023-04-26T12:29:26;11.00;46.90
45233;DHT22;30969;51.052;17.056;2023-04-26T12:34:33;11.30;41.80
45233;DHT22;30969;51.052;17.056;2023-04-26T12:39:36;11.40;45.10
45233;DHT22;30969;51.052;17.056;2023-04-26T12:44:40;11.50;45.00
45233;DHT22;30969;51.052;17.056;2023-04-26T12:49:45;11.60;43.30
45233;DHT22;30969;51.052;17.056;2023-04-26T12:54:49;11.30;42.50
45233;DHT22;30969;51.052;17.056;2023-04-26T12:59:53;11.20;42.40
45233;DHT22;30969;51.052;17.056;2023-04-26T13:05:00;11.70;41.90
45233;DHT22;30969;51.052;17.056;2023-04-26T13:10:07;12.10;42.20
45233;DHT22;30969;51.052;17.056;2023-04-26T13:15:14;12.10;40.40
45233;DHT22;30969;51.052;17.056;2023-04-26T13:20:20;12.10;38.70
45233;DHT22;30969;51.052;17.056;2023-04-26T13:25:27;12.00;38.50
45233;DHT22;30969;51.052;17.056;2023-04-26T13:30:30;12.20;40.30
45233;DHT22;30969;51.052;17.056;2023-04-26T13:35:35;11.80;43.70
45233;DHT22;30969;51.052;17.056;2023-04-26T13:40:39;11.40;46.20
45233;DHT22;30969;51.052;17.056;2023-04-26T13:45:42;11.20;46.70
45233;DHT22;30969;51.052;17.056;2023-04-26T13:50:47;11.20;46.20
45233;DHT22;30969;51.052;17.056;2023-04-26T13:55:51;11.00;44.20
45233;DHT22;30969;51.052;17.056;2023-04-26T14:00:55;11.30;44.50
45233;DHT22;30969;51.052;17.056;2023-04-26T14:06:01;12.10;43.70
45233;DHT22;30969;51.052;17.056;2023-04-26T14:11:05;12.70;42.60
45233;DHT22;30969;51.052;17.056;2023-04-26T14:16:09;13.00;40.80
45233;DHT22;30969;51.052;17.056;2023-04-26T14:21:14;12.40;41.00
45233;DHT22;30969;51.052;17.056;2023-04-26T14:26:18;13.00;42.00
45233;DHT22;30969;51.052;17.056;2023-04-26T14:31:21;14.10;40.10
45233;DHT22;30969;51.052;17.056;2023-04-26T14:36:29;16.10;37.80
45233;DHT22;30969;51.052;17.056;2023-04-26T14:41:33;19.70;32.00
45233;DHT22;30969;51.052;17.056;2023-04-26T14:46:37;17.50;30.50
45233;DHT22;30969;51.052;17.056;2023-04-26T14:51:45;15.20;35.20
45233;DHT22;30969;51.052;17.056;2023-04-26T14:56:49;13.70;38.80
45233;DHT22;30969;51.052;17.056;2023-04-26T15:01:53;12.80;41.90
45233;DHT22;30969;51.052;17.056;2023-04-26T15:06:58;14.50;39.20
45233;DHT22;30969;51.052;17.056;2023-04-26T15:12:02;17.80;33.40
45233;DHT22;30969;51.052;17.056;2023-04-26T15:17:06;18.50;30.00
45233;DHT22;30969;51.052;17.056;2023-04-26T15:22:11;15.90;34.80
45233;DHT22;30969;51.052;17.056;2023-04-26T15:27:14;14.30;39.20
45233;DHT22;30969;51.052;17.056;2023-04-26T15:32:18;13.20;41.10
45233;DHT22;30969;51.052;17.056;2023-04-26T15:37:23;12.60;42.50
45233;DHT22;30969;51.052;17.056;2023-04-26T15:42:26;13.80;40.80
45233;DHT22;30969;51.052;17.056;2023-04-26T15:47:30;15.00;37.00
45233;DHT22;30969;51.052;17.056;2023-04-26T15:52:35;17.80;32.70
45233;DHT22;30969;51.052;17.056;2023-04-26T15:57:40;20.60;28.50
45233;DHT22;30969;51.052;17.056;2023-04-26T16:02:44;21.10;27.30
45233;DHT22;30969;51.052;17.056;2023-04-26T16:07:49;18.30;29.00
45233;DHT22;30969;51.052;17.056;2023-04-26T16:12:53;16.70;31.10
45233;DHT22;30969;51.052;17.056;2023-04-26T16:17:56;15.20;34.60
45233;DHT22;30969;51.052;17.056;2023-04-26T16:23:01;13.90;37.50
45233;DHT22;30969;51.052;17.056;2023-04-26T16:28:05;12.90;40.70
45233;DHT22;30969;51.052;17.056;2023-04-26T16:33:12;12.20;43.50
45233;DHT22;30969;51.052;17.056;2023-04-26T16:38:16;11.80;44.40
45233;DHT22;30969;51.052;17.056;2023-04-26T16:43:20;13.20;42.00
45233;DHT22;30969;51.052;17.056;2023-04-26T16:48:24;14.00;39.20
45233;DHT22;30969;51.052;17.056;2023-04-26T16:53:29;15.10;38.20
45233;DHT22;30969;51.052;17.056;2023-04-26T16:58:33;15.10;35.60
45233;DHT22;30969;51.052;17.056;2023-04-26T17:03:36;13.90;35.90
45233;DHT22;30969;51.052;17.056;2023-04-26T17:08:42;13.00;38.20
45233;DHT22;30969;51.052;17.056;2023-04-26T17:13:46;12.70;40.20
45233;DHT22;30969;51.052;17.056;2023-04-26T17:18:50;12.30;41.50
45233;DHT22;30969;51.052;17.056;2023-04-26T17:23:55;12.00;42.70
45233;DHT22;30969;51.052;17.056;2023-04-26T17:28:58;11.70;43.90
45233;DHT22;30969;51.052;17.056;2023-04-26T17:34:02;11.50;45.60
45233;DHT22;30969;51.052;17.056;2023-04-26T17:39:07;11.00;49.10
45233;DHT22;30969;51.052;17.056;2023-04-26T17:44:11;10.40;53.60
45233;DHT22;30969;51.052;17.056;2023-04-26T17:49:15;10.00;55.90
45233;DHT22;30969;51.052;17.056;2023-04-26T17:54:20;10.10;55.20
45233;DHT22;30969;51.052;17.056;2023-04-26T17:59:23;10.10;54.40
45233;DHT22;30969;51.052;17.056;2023-04-26T18:04:27;10.00;53.30
45233;DHT22;30969;51.052;17.056;2023-04-26T18:09:33;10.00;53.00
45233;DHT22;30969;51.052;17.056;2023-04-26T18:14:36;10.00;52.40
45233;DHT22;30969;51.052;17.056;2023-04-26T18:19:46;9.90;52.90
45233;DHT22;30969;51.052;17.056;2023-04-26T18:24:50;9.70;53.30
45233;DHT22;30969;51.052;17.056;2023-04-26T18:29:54;9.60;53.70
45233;DHT22;30969;51.052;17.056;2023-04-26T18:34:58;9.50;54.40
45233;DHT22;30969;51.052;17.056;2023-04-26T18:40:03;9.60;54.20
45233;DHT22;30969;51.052;17.056;2023-04-26T18:45:08;9.60;54.10
45233;DHT22;30969;51.052;17.056;2023-04-26T18:50:12;9.50;54.30
45233;DHT22;30969;51.052;17.056;2023-04-26T18:55:17;9.60;54.40
45233;DHT22;30969;51.052;17.056;2023-04-26T19:00:21;9.70;53.70
45233;DHT22;30969;51.052;17.056;2023-04-26T19:05:24;9.40;55.80
45233;DHT22;30969;51.052;17.056;2023-04-26T19:10:30;9.00;57.20
45233;DHT22;30969;51.052;17.056;2023-04-26T19:15:34;8.90;57.90
45233;DHT22;30969;51.052;17.056;2023-04-26T19:20:38;8.80;58.50
45233;DHT22;30969;51.052;17.056;2023-04-26T19:25:43;8.50;59.70
45233;DHT22;30969;51.052;17.056;2023-04-26T19:30:47;8.50;60.00
45233;DHT22;30969;51.052;17.056;2023-04-26T19:35:50;8.50;60.00
45233;DHT22;30969;51.052;17.056;2023-04-26T19:40:55;8.50;60.00
45233;DHT22;30969;51.052;17.056;2023-04-26T19:45:59;8.60;60.00
45233;DHT22;30969;51.052;17.056;2023-04-26T19:51:02;8.30;60.70
45233;DHT22;30969;51.052;17.056;2023-04-26T19:56:08;8.20;61.60
45233;DHT22;30969;51.052;17.056;2023-04-26T20:01:13;8.30;61.30
45233;DHT22;30969;51.052;17.056;2023-04-26T20:06:17;8.30;60.80
45233;DHT22;30969;51.052;17.056;2023-04-26T20:11:22;8.40;60.00
45233;DHT22;30969;51.052;17.056;2023-04-26T20:16:25;8.60;59.00
45233;DHT22;30969;51.052;17.056;2023-04-26T20:21:29;8.40;59.30
45233;DHT22;30969;51.052;17.056;2023-04-26T20:26:35;8.50;59.00
45233;DHT22;30969;51.052;17.056;2023-04-26T20:31:38;8.80;58.00
45233;DHT22;30969;51.052;17.056;2023-04-26T20:36:42;8.60;58.30
45233;DHT22;30969;51.052;17.056;2023-04-26T20:41:47;8.70;58.20
45233;DHT22;30969;51.052;17.056;2023-04-26T20:46:50;8.80;57.50
45233;DHT22;30969;51.052;17.056;2023-04-26T20:51:54;9.00;56.90
45233;DHT22;30969;51.052;17.056;2023-04-26T20:56:59;8.90;57.30
45233;DHT22;30969;51.052;17.056;2023-04-26T21:02:05;9.00;57.10
45233;DHT22;30969;51.052;17.056;2023-04-26T21:07:10;8.90;57.40
45233;DHT22;30969;51.052;17.056;2023-04-26T21:12:15;8.80;58.00
45233;DHT22;30969;51.052;17.056;2023-04-26T21:17:19;8.70;58.60
45233;DHT22;30969;51.052;17.056;2023-04-26T21:22:22;8.50;59.70
45233;DHT22;30969;51.052;17.056;2023-04-26T21:27:29;8.10;60.90
45233;DHT22;30969;51.052;17.056;2023-04-26T21:32:32;8.10;60.90
45233;DHT22;30969;51.052;17.056;2023-04-26T21:37:36;8.10;61.30
45233;DHT22;30969;51.052;17.056;2023-04-26T21:42:41;8.20;61.00
45233;DHT22;30969;51.052;17.056;2023-04-26T21:47:52;8.40;60.20
45233;DHT22;30969;51.052;17.056;2023-04-26T21:52:56;8.00;61.20
45233;DHT22;30969;51.052;17.056;2023-04-26T21:58:01;8.00;61.10
45233;DHT22;30969;51.052;17.056;2023-04-26T22:03:04;7.70;62.60
45233;DHT22;30969;51.052;17.056;2023-04-26T22:08:08;7.70;61.70
45233;DHT22;30969;51.052;17.056;2023-04-26T22:13:13;7.50;62.20
45233;DHT22;30969;51.052;17.056;2023-04-26T22:18:16;7.50;62.70
45233;DHT22;30969;51.052;17.056;2023-04-26T22:23:20;7.50;62.70
45233;DHT22;30969;51.052;17.056;2023-04-26T22:28:25;7.60;62.20
